Введите код ICAO:



Lithuania (LT) КАУНАС (EYKA)

Lithuania (LT) КАУНАС (EYKA) Архив погоды
Фактическая погодаПрогноз погоды
Дата: 15 октября 2018
Время: 08:20 UTC
Ветер: 150°-4 м/с
Погода хорошая
Температура: +12°C
Точка   росы: +3°C
Влажность: 54 %
QNH: 1025 гПа
Прогноз получен: 15 октября 2018, в 05:00 UTC
Прогноз на 15-16 октября с 06.00 до 06.00 UTC
Ветер: 160°-4 м/с
Видимость: 9000 м
Нет существенных облаков
 ИЗМЕНЕНИЯ 15 октября с 22.00 до 24.00 UTC
Видимость: 1500 м
Явления: тонкий туман, дымка
Облачность: рассеянная (3-5 балла) на 150 м;
 ВРЕМЕНАМИ 16 октября с 00.00 до 06.00 UTC
Видимость: 400 м
Явления: туман
Небо не видно - вертикальная видимость: 90 м
 
METAR EYKA 150820Z 15008KT CAVOK 12/03 Q1025TAF EYKA 150500Z 1506/1606 16008KT 9000 NSC BECMG 1522/1524 1500 MIFG BR SCT005 TEMPO 1600/1606 0400 FG VV003

Для получения погоды по необходимым аэродромам введите 4-буквенный код ICAO и нажмите ЗАПРОС.
Коды аэродромов можно скачать здесь.
Если погода отображается, а названия аэропорта нет, сообщите нам и мы добавим его в список.
В случие обнаружения некорректной раскодировки, сообщите нам и ошибка будет исправлена.
Эта информация взята из открытых источников и должна использоваться исключительно в ознакомительных целях. Не используйте ее для планирования полетов-перелетов или для мероприятий, где возможны материальные потери или человеческие жертвы. Для этого обращайтесь в официальные структуры.